createdAt,value
2023-02-18T00:00:08.852Z,17.50
2023-02-18T00:02:36.791Z,17.50
2023-02-18T00:05:04.788Z,17.50
2023-02-18T00:07:35.311Z,17.50
2023-02-18T00:10:03.294Z,17.50
2023-02-18T00:12:33.105Z,17.40
2023-02-18T00:15:01.049Z,17.40
2023-02-18T00:17:29.788Z,17.40
2023-02-18T00:19:57.973Z,17.30
2023-02-18T00:22:27.691Z,17.30
2023-02-18T00:24:55.563Z,17.40
2023-02-18T00:27:23.466Z,17.30
2023-02-18T00:29:52.743Z,17.30
2023-02-18T00:32:20.655Z,17.30
2023-02-18T00:34:48.580Z,17.30
2023-02-18T00:37:16.516Z,17.30
2023-02-18T00:39:44.790Z,17.40
2023-02-18T00:42:12.954Z,17.40
2023-02-18T00:44:40.863Z,17.50
2023-02-18T00:47:10.104Z,17.40
2023-02-18T00:49:38.137Z,17.40
2023-02-18T00:52:06.305Z,17.40
2023-02-18T00:54:34.546Z,17.40
2023-02-18T00:57:02.412Z,17.40
2023-02-18T00:59:30.345Z,17.40
2023-02-18T01:01:58.312Z,17.30
2023-02-18T01:04:29.397Z,17.30
2023-02-18T01:06:57.372Z,17.30
2023-02-18T01:09:26.636Z,17.30
2023-02-18T01:11:54.580Z,17.40
2023-02-18T01:14:22.514Z,17.50
2023-02-18T01:16:51.234Z,17.50
2023-02-18T01:19:19.245Z,17.50
2023-02-18T01:21:48.523Z,17.50
2023-02-18T01:24:16.434Z,17.50
2023-02-18T01:26:44.313Z,17.40
2023-02-18T01:29:12.287Z,17.40
2023-02-18T01:31:41.758Z,17.40
2023-02-18T01:34:09.707Z,17.30
2023-02-18T01:36:37.627Z,17.40
2023-02-18T01:39:07.704Z,17.30
2023-02-18T01:41:35.613Z,17.40
2023-02-18T01:44:14.412Z,17.40
2023-02-18T01:46:42.328Z,17.30
2023-02-18T01:49:10.303Z,17.30
2023-02-18T01:51:40.058Z,17.30
2023-02-18T01:54:10.433Z,17.30
2023-02-18T01:56:40.222Z,17.30
2023-02-18T01:59:09.248Z,17.40
2023-02-18T02:01:37.187Z,17.50
2023-02-18T02:04:05.299Z,17.50
2023-02-18T02:06:33.286Z,17.50
2023-02-18T02:09:03.048Z,17.50
2023-02-18T02:12:00.781Z,17.40
2023-02-18T02:14:37.804Z,17.40
2023-02-18T02:17:08.220Z,17.40
2023-02-18T02:19:48.430Z,17.40
2023-02-18T02:22:37.221Z,17.40
2023-02-18T02:25:20.594Z,17.30
2023-02-18T02:28:34.762Z,17.30
2023-02-18T02:31:23.538Z,17.30
2023-02-18T02:34:35.232Z,17.40
2023-02-18T02:37:08.420Z,17.30
2023-02-18T02:39:39.233Z,17.30
2023-02-18T02:42:10.010Z,17.30
2023-02-18T02:44:41.206Z,17.40
2023-02-18T02:47:10.608Z,17.50
2023-02-18T02:49:40.407Z,17.50
2023-02-18T02:52:12.687Z,17.50
2023-02-18T02:54:40.624Z,17.50
2023-02-18T02:57:30.057Z,17.50
2023-02-18T03:00:14.519Z,17.50
2023-02-18T03:02:50.956Z,17.50
2023-02-18T03:05:23.772Z,17.40
2023-02-18T03:08:01.176Z,17.40
2023-02-18T03:10:38.011Z,17.40
2023-02-18T03:13:08.859Z,17.40
2023-02-18T03:15:41.879Z,17.30
2023-02-18T03:18:12.770Z,17.30
2023-02-18T03:20:42.644Z,17.40
2023-02-18T03:23:12.893Z,17.30
2023-02-18T03:25:41.087Z,17.30
2023-02-18T03:28:10.803Z,17.30
2023-02-18T03:30:43.673Z,17.30
2023-02-18T03:33:14.340Z,17.30
2023-02-18T03:35:42.279Z,17.30
2023-02-18T03:38:15.003Z,17.30
2023-02-18T03:40:43.154Z,17.30
2023-02-18T03:43:11.098Z,17.30
2023-02-18T03:45:39.495Z,17.30
2023-02-18T03:48:07.811Z,17.40
2023-02-18T03:50:35.679Z,17.50
2023-02-18T03:53:03.520Z,17.50
2023-02-18T03:55:32.712Z,17.50
2023-02-18T03:58:00.601Z,17.50
2023-02-18T04:00:28.542Z,17.50
2023-02-18T04:02:56.405Z,17.50
2023-02-18T04:05:24.255Z,17.50
2023-02-18T04:07:52.168Z,17.40
2023-02-18T04:10:20.643Z,17.40
2023-02-18T04:12:49.893Z,17.40
2023-02-18T04:15:17.954Z,17.30
2023-02-18T04:17:45.843Z,17.40
2023-02-18T04:20:14.088Z,17.40
2023-02-18T04:22:41.971Z,17.30
2023-02-18T04:25:10.016Z,17.30
2023-02-18T04:27:37.905Z,17.30
2023-02-18T04:30:08.551Z,17.30
2023-02-18T04:32:36.673Z,17.30
2023-02-18T04:35:04.664Z,17.40
2023-02-18T04:37:32.614Z,17.50
2023-02-18T04:40:00.517Z,17.50
2023-02-18T04:42:28.393Z,17.50
2023-02-18T04:44:56.250Z,17.40
2023-02-18T04:47:25.622Z,17.40
2023-02-18T04:49:53.469Z,17.40
2023-02-18T04:52:21.586Z,17.40
2023-02-18T04:54:49.676Z,17.40
2023-02-18T04:57:17.577Z,17.40
2023-02-18T04:59:45.421Z,17.40
2023-02-18T05:02:13.296Z,17.40
2023-02-18T05:04:42.578Z,17.40
2023-02-18T05:07:10.452Z,17.50
2023-02-18T05:09:38.310Z,17.50
2023-02-18T05:12:07.137Z,17.50
2023-02-18T05:14:35.030Z,17.50
2023-02-18T05:17:03.159Z,17.50
2023-02-18T05:19:31.114Z,17.40
2023-02-18T05:22:00.342Z,17.40
2023-02-18T05:24:28.224Z,17.40
2023-02-18T05:26:56.174Z,17.40
2023-02-18T05:29:24.079Z,17.40
2023-02-18T05:31:52.097Z,17.40
2023-02-18T05:34:20.062Z,17.30
2023-02-18T05:36:47.903Z,17.40
2023-02-18T05:39:17.119Z,17.50
2023-02-18T05:41:45.019Z,17.50
2023-02-18T05:44:30.181Z,17.50
2023-02-18T05:46:58.629Z,17.40
2023-02-18T05:49:26.707Z,17.40
2023-02-18T05:51:54.546Z,17.40
2023-02-18T05:54:23.899Z,17.40
2023-02-18T05:56:51.792Z,17.40
2023-02-18T05:59:19.939Z,17.40
2023-02-18T06:01:47.841Z,17.40
2023-02-18T06:04:15.957Z,17.30
2023-02-18T06:06:43.902Z,17.30
2023-02-18T06:09:11.829Z,17.40
2023-02-18T06:11:41.076Z,17.50
2023-02-18T06:14:08.963Z,17.60
2023-02-18T06:16:36.883Z,17.60
2023-02-18T06:19:04.742Z,17.60
2023-02-18T06:21:32.610Z,17.50
2023-02-18T06:24:00.499Z,17.50
2023-02-18T06:26:28.420Z,17.50
2023-02-18T06:28:57.650Z,17.50
2023-02-18T06:31:25.604Z,17.40
2023-02-18T06:33:53.542Z,17.40
2023-02-18T06:36:21.439Z,17.30
2023-02-18T06:38:49.379Z,17.30
2023-02-18T06:41:17.284Z,17.40
2023-02-18T06:43:45.136Z,17.40
2023-02-18T06:46:14.379Z,17.40
2023-02-18T06:48:42.299Z,17.30
2023-02-18T06:51:10.219Z,17.30
2023-02-18T06:53:38.081Z,17.30
2023-02-18T06:56:06.779Z,17.30
2023-02-18T06:58:34.898Z,17.30
2023-02-18T07:01:02.851Z,17.40
2023-02-18T07:03:32.164Z,17.40
2023-02-18T07:06:00.039Z,17.30
2023-02-18T07:08:28.046Z,17.30
2023-02-18T07:10:56.124Z,17.30
2023-02-18T07:13:24.040Z,17.40
2023-02-18T07:15:51.906Z,17.50
2023-02-18T07:18:19.815Z,17.60
2023-02-18T07:20:49.083Z,17.60
2023-02-18T07:23:17.003Z,17.60
2023-02-18T07:25:44.926Z,17.50
2023-02-18T07:28:12.788Z,17.60
2023-02-18T07:30:40.697Z,17.50
2023-02-18T07:33:08.574Z,17.50
2023-02-18T07:35:36.434Z,17.40
2023-02-18T07:38:05.714Z,17.40
2023-02-18T07:40:33.615Z,17.40
2023-02-18T07:43:01.464Z,17.40
2023-02-18T07:45:30.372Z,17.40
2023-02-18T07:47:58.346Z,17.40
2023-02-18T07:50:26.210Z,17.40
2023-02-18T07:52:54.117Z,17.30
2023-02-18T07:55:23.348Z,17.40
2023-02-18T07:58:02.247Z,17.40
2023-02-18T08:00:30.299Z,17.50
2023-02-18T08:02:58.219Z,17.50
2023-02-18T08:05:26.096Z,17.50
2023-02-18T08:07:53.945Z,17.50
2023-02-18T08:10:23.335Z,17.50
2023-02-18T08:12:51.220Z,17.40
2023-02-18T08:15:19.241Z,17.50
2023-02-18T08:17:47.131Z,17.40
2023-02-18T08:20:15.055Z,17.40
2023-02-18T08:22:42.920Z,17.40
2023-02-18T08:25:18.233Z,17.40
2023-02-18T08:27:56.981Z,17.40
2023-02-18T08:30:24.924Z,17.40
2023-02-18T08:32:52.840Z,17.40
2023-02-18T08:35:20.956Z,17.40
2023-02-18T08:37:53.765Z,17.40
2023-02-18T08:40:22.746Z,17.40
2023-02-18T08:42:50.700Z,17.40
2023-02-18T08:45:19.999Z,17.40
2023-02-18T08:48:15.883Z,17.50
2023-02-18T08:50:35.815Z,17.60
2023-02-18T08:53:04.176Z,17.70
2023-02-18T08:55:32.195Z,17.70
2023-02-18T08:58:00.122Z,17.60
2023-02-18T09:00:29.437Z,17.60
2023-02-18T09:02:57.346Z,17.60
2023-02-18T09:05:25.295Z,17.60
2023-02-18T09:07:53.257Z,17.50
2023-02-18T09:10:21.292Z,17.50
2023-02-18T09:12:49.199Z,17.40
2023-02-18T09:15:17.132Z,17.40
2023-02-18T09:17:46.417Z,17.40
2023-02-18T09:20:14.613Z,17.40
2023-02-18T09:22:42.511Z,17.40
2023-02-18T09:25:10.547Z,17.40
2023-02-18T09:27:38.464Z,17.40
2023-02-18T09:30:07.869Z,17.30
2023-02-18T09:32:36.027Z,17.40
2023-02-18T09:35:05.770Z,17.40
2023-02-18T09:37:33.661Z,17.40
2023-02-18T09:40:01.563Z,17.40
2023-02-18T09:42:31.995Z,17.40
2023-02-18T09:45:01.217Z,17.30
2023-02-18T09:47:32.570Z,17.40
2023-02-18T09:50:01.202Z,17.50
2023-02-18T09:52:32.920Z,17.60
2023-02-18T09:55:00.899Z,17.60
2023-02-18T09:57:31.292Z,17.60
2023-02-18T10:00:00.956Z,17.60
2023-02-18T10:02:28.989Z,17.60
2023-02-18T10:04:56.844Z,17.60
2023-02-18T10:07:28.394Z,17.60
2023-02-18T10:09:58.472Z,17.50
2023-02-18T10:12:27.282Z,17.50
2023-02-18T10:14:56.056Z,17.50
2023-02-18T10:17:24.923Z,17.40
2023-02-18T10:19:53.290Z,17.40
2023-02-18T10:22:21.373Z,17.40
2023-02-18T10:24:50.997Z,17.40
2023-02-18T10:27:24.697Z,17.40
2023-02-18T10:29:52.631Z,17.40
2023-02-18T10:32:22.852Z,17.40
2023-02-18T10:34:52.932Z,17.40
2023-02-18T10:37:31.847Z,17.50
2023-02-18T10:40:04.516Z,17.60
2023-02-18T10:42:40.325Z,17.60
2023-02-18T10:45:14.306Z,17.60
2023-02-18T10:47:44.234Z,17.50
2023-02-18T10:50:14.059Z,17.50
2023-02-18T10:52:43.478Z,17.50
2023-02-18T10:55:12.051Z,17.50
2023-02-18T10:57:48.524Z,17.50
2023-02-18T11:00:18.911Z,17.40
2023-02-18T11:02:47.060Z,17.40
2023-02-18T11:05:20.615Z,17.40
2023-02-18T11:07:49.319Z,17.40
2023-02-18T11:10:18.679Z,17.40
2023-02-18T11:12:49.003Z,17.40
2023-02-18T11:15:19.338Z,17.40
2023-02-18T11:17:47.904Z,17.40
2023-02-18T11:20:30.777Z,17.40
2023-02-18T11:22:59.936Z,17.50
2023-02-18T11:25:28.587Z,17.60
2023-02-18T11:27:58.559Z,17.60
2023-02-18T11:30:27.829Z,17.60
2023-02-18T11:32:57.039Z,17.60
2023-02-18T11:35:25.930Z,17.60
2023-02-18T11:37:53.892Z,17.50
2023-02-18T11:40:22.942Z,17.50
2023-02-18T11:42:50.839Z,17.50
2023-02-18T11:45:30.105Z,17.50
2023-02-18T11:48:01.403Z,17.40
2023-02-18T11:50:32.186Z,17.40
2023-02-18T11:53:00.105Z,17.40
2023-02-18T11:55:30.447Z,17.40
2023-02-18T11:57:59.267Z,17.40
2023-02-18T12:00:36.817Z,17.40
2023-02-18T12:03:05.933Z,17.40
2023-02-18T12:05:33.856Z,17.40
2023-02-18T12:08:04.372Z,17.40
2023-02-18T12:10:33.805Z,17.40
2023-02-18T12:13:03.508Z,17.40
2023-02-18T12:15:42.493Z,17.40
2023-02-18T12:18:20.584Z,17.40
2023-02-18T12:20:55.713Z,17.40
2023-02-18T12:23:26.041Z,17.40
2023-02-18T12:25:56.852Z,17.60
2023-02-18T12:28:49.073Z,17.60
2023-02-18T12:31:30.859Z,17.60
2023-02-18T12:34:10.160Z,17.60
2023-02-18T12:36:44.424Z,17.60
2023-02-18T12:39:13.471Z,17.60
2023-02-18T12:42:05.594Z,17.60
2023-02-18T12:44:36.929Z,17.50
2023-02-18T12:47:29.591Z,17.50
2023-02-18T12:50:05.311Z,17.50
2023-02-18T12:52:38.167Z,17.40
2023-02-18T12:55:28.769Z,17.50
2023-02-18T12:58:00.480Z,17.50
2023-02-18T13:01:04.226Z,17.40
2023-02-18T13:04:06.668Z,17.40
2023-02-18T13:06:49.681Z,17.40
2023-02-18T13:09:24.287Z,17.40
2023-02-18T13:11:54.132Z,17.50
2023-02-18T13:14:23.087Z,17.60
2023-02-18T13:16:52.472Z,17.60
2023-02-18T13:19:22.986Z,17.60
2023-02-18T13:21:51.963Z,17.50
2023-02-18T13:24:24.090Z,17.50
2023-02-18T13:26:51.976Z,17.60
2023-02-18T13:29:23.745Z,17.50
2023-02-18T13:32:00.672Z,17.50
2023-02-18T13:34:32.174Z,17.50
2023-02-18T13:37:05.450Z,17.40
2023-02-18T13:39:33.347Z,17.40
2023-02-18T13:42:25.113Z,17.40
2023-02-18T13:45:23.667Z,17.40
2023-02-18T13:47:51.597Z,17.40
2023-02-18T13:50:42.671Z,17.40
2023-02-18T13:53:21.833Z,17.40
2023-02-18T13:55:56.177Z,17.40
2023-02-18T13:58:25.843Z,17.50
2023-02-18T14:00:55.919Z,17.60
2023-02-18T14:03:35.903Z,17.60
2023-02-18T14:06:15.442Z,17.60
2023-02-18T14:08:43.442Z,17.50
2023-02-18T14:11:35.024Z,17.50
2023-02-18T14:14:35.581Z,17.50
2023-02-18T14:17:30.346Z,17.50
2023-02-18T14:20:13.266Z,17.50
2023-02-18T14:22:47.363Z,17.50
2023-02-18T14:25:21.770Z,17.40
2023-02-18T14:27:51.707Z,17.40
2023-02-18T14:30:21.222Z,17.50
2023-02-18T14:32:50.338Z,17.40
2023-02-18T14:35:26.218Z,17.40
2023-02-18T14:38:28.446Z,17.40
2023-02-18T14:41:08.989Z,17.40
2023-02-18T14:43:59.786Z,17.40
2023-02-18T14:46:33.869Z,17.60
2023-02-18T14:49:19.124Z,17.60
2023-02-18T14:51:47.980Z,17.70
2023-02-18T14:54:20.046Z,17.60
2023-02-18T14:56:56.642Z,17.60
2023-02-18T14:59:26.228Z,17.60
2023-02-18T15:01:55.626Z,17.60
2023-02-18T15:04:25.473Z,17.50
2023-02-18T15:07:00.123Z,17.50
2023-02-18T15:09:29.391Z,17.50
2023-02-18T15:11:58.926Z,17.50
2023-02-18T15:14:27.541Z,17.40
2023-02-18T15:16:55.449Z,17.50
2023-02-18T15:19:25.366Z,17.40
2023-02-18T15:21:54.336Z,17.40
2023-02-18T15:24:26.145Z,17.40
2023-02-18T15:26:56.914Z,17.40
2023-02-18T15:29:25.680Z,17.40
2023-02-18T15:31:54.410Z,17.50
2023-02-18T15:34:32.747Z,17.60
2023-02-18T15:37:01.352Z,17.60
2023-02-18T15:39:29.362Z,17.70
2023-02-18T15:42:00.045Z,17.60
2023-02-18T15:44:28.772Z,17.60
2023-02-18T15:46:56.611Z,17.60
2023-02-18T15:49:24.874Z,17.60
2023-02-18T15:51:52.734Z,17.60
2023-02-18T15:54:22.167Z,17.50
2023-02-18T15:56:51.450Z,17.50
2023-02-18T15:59:21.519Z,17.50
2023-02-18T16:01:51.044Z,17.50
2023-02-18T16:04:19.059Z,17.50
2023-02-18T16:06:48.148Z,17.40
2023-02-18T16:09:17.463Z,17.50
2023-02-18T16:11:46.313Z,17.40
2023-02-18T16:14:30.659Z,17.40
2023-02-18T16:17:06.294Z,17.40
2023-02-18T16:19:34.352Z,17.50
2023-02-18T16:22:05.361Z,17.60
2023-02-18T16:24:33.949Z,17.60
2023-02-18T16:27:03.307Z,17.50
2023-02-18T16:29:37.237Z,17.50
2023-02-18T16:32:05.427Z,17.50
2023-02-18T16:34:33.400Z,17.50
2023-02-18T16:37:19.000Z,17.50
2023-02-18T16:39:46.930Z,17.50
2023-02-18T16:42:15.027Z,17.40
2023-02-18T16:44:44.296Z,17.40
2023-02-18T16:47:12.597Z,17.40
2023-02-18T16:49:40.510Z,17.40
2023-02-18T16:52:10.009Z,17.40
2023-02-18T16:54:37.911Z,17.40
2023-02-18T16:57:05.798Z,17.40
2023-02-18T16:59:33.710Z,17.40
2023-02-18T17:02:02.925Z,17.40
2023-02-18T17:04:30.854Z,17.50
2023-02-18T17:06:58.886Z,17.60
2023-02-18T17:09:27.435Z,17.70
2023-02-18T17:11:56.001Z,17.70
2023-02-18T17:14:24.187Z,17.80
2023-02-18T17:16:53.537Z,17.70
2023-02-18T17:19:22.815Z,17.70
2023-02-18T17:21:50.715Z,17.70
2023-02-18T17:24:19.326Z,17.70
2023-02-18T17:26:47.238Z,17.70
2023-02-18T17:29:15.480Z,17.60
2023-02-18T17:31:46.840Z,17.60
2023-02-18T17:34:16.224Z,17.50
2023-02-18T17:36:45.740Z,17.50
2023-02-18T17:39:14.097Z,17.60
2023-02-18T17:41:42.369Z,17.50
2023-02-18T17:44:14.232Z,17.50
2023-02-18T17:46:42.123Z,17.50
2023-02-18T17:49:10.014Z,17.50
2023-02-18T17:51:39.140Z,17.50
2023-02-18T17:54:13.394Z,17.50
2023-02-18T17:56:41.444Z,17.50
2023-02-18T17:59:09.301Z,17.50
2023-02-18T18:01:37.377Z,17.50
2023-02-18T18:04:05.535Z,17.40
2023-02-18T18:06:35.975Z,17.50
2023-02-18T18:09:03.878Z,17.60
2023-02-18T18:11:33.154Z,17.70
2023-02-18T18:14:01.043Z,17.70
2023-02-18T18:16:28.918Z,17.70
2023-02-18T18:18:56.846Z,17.60
2023-02-18T18:21:29.692Z,17.60
2023-02-18T18:23:57.575Z,17.60
2023-02-18T18:26:25.463Z,17.60
2023-02-18T18:28:54.803Z,17.60
2023-02-18T18:31:22.753Z,17.50
2023-02-18T18:33:52.848Z,17.50
2023-02-18T18:36:21.366Z,17.50
2023-02-18T18:38:49.349Z,17.50
2023-02-18T18:41:18.950Z,17.50
2023-02-18T18:43:46.883Z,17.50
2023-02-18T18:46:16.195Z,17.50
2023-02-18T18:48:44.116Z,17.50
2023-02-18T18:51:15.836Z,17.50
2023-02-18T18:53:43.957Z,17.60
2023-02-18T18:56:12.156Z,17.70
2023-02-18T18:58:40.083Z,17.70
2023-02-18T19:01:13.642Z,17.70
2023-02-18T19:03:43.351Z,17.70
2023-02-18T19:06:11.311Z,17.60
2023-02-18T19:08:39.218Z,17.60
2023-02-18T19:11:08.658Z,17.60
2023-02-18T19:13:36.911Z,17.60
2023-02-18T19:16:06.990Z,17.60
2023-02-18T19:18:35.263Z,17.50
2023-02-18T19:21:05.215Z,17.50
2023-02-18T19:23:33.812Z,17.50
2023-02-18T19:26:01.733Z,17.50
2023-02-18T19:28:29.744Z,17.50
2023-02-18T19:30:57.732Z,17.50
2023-02-18T19:33:25.709Z,17.40
2023-02-18T19:35:53.614Z,17.40
2023-02-18T19:38:22.910Z,17.50
2023-02-18T19:40:50.804Z,17.50
2023-02-18T19:43:18.718Z,17.50
2023-02-18T19:45:47.337Z,17.50
2023-02-18T19:48:15.726Z,17.40
2023-02-18T19:50:44.065Z,17.40
2023-02-18T19:53:12.046Z,17.50
2023-02-18T19:55:41.259Z,17.60
2023-02-18T19:58:09.197Z,17.70
2023-02-18T20:00:37.099Z,17.70
2023-02-18T20:03:05.143Z,17.70
2023-02-18T20:05:33.000Z,17.70
2023-02-18T20:08:00.899Z,17.70
2023-02-18T20:10:29.226Z,17.70
2023-02-18T20:12:58.537Z,17.60
2023-02-18T20:15:26.466Z,17.60
2023-02-18T20:17:54.488Z,17.60
2023-02-18T20:20:22.338Z,17.50
2023-02-18T20:22:50.205Z,17.50
2023-02-18T20:25:18.263Z,17.50
2023-02-18T20:27:59.719Z,17.50
2023-02-18T20:30:30.149Z,17.50
2023-02-18T20:32:58.085Z,17.50
2023-02-18T20:35:25.986Z,17.40
2023-02-18T20:37:53.836Z,17.40
2023-02-18T20:40:21.694Z,17.40
2023-02-18T20:42:49.587Z,17.40
2023-02-18T20:45:17.608Z,17.30
2023-02-18T20:47:46.833Z,17.40
2023-02-18T20:50:15.790Z,17.40
2023-02-18T20:52:43.720Z,17.30
2023-02-18T20:55:11.607Z,17.30
2023-02-18T20:57:39.508Z,17.40
2023-02-18T21:00:08.471Z,17.50
2023-02-18T21:02:36.429Z,17.70
2023-02-18T21:05:06.106Z,17.80
2023-02-18T21:07:33.976Z,18.00
2023-02-18T21:10:01.838Z,18.10
2023-02-18T21:12:29.704Z,18.30
2023-02-18T21:14:57.571Z,18.40
2023-02-18T21:17:25.463Z,18.50
2023-02-18T21:19:53.370Z,18.60
2023-02-18T21:22:22.559Z,18.60
2023-02-18T21:24:51.485Z,18.70
2023-02-18T21:27:19.318Z,18.70
2023-02-18T21:29:47.178Z,18.60
2023-02-18T21:32:15.126Z,18.50
2023-02-18T21:34:43.037Z,18.30
2023-02-18T21:37:10.938Z,18.20
2023-02-18T21:39:40.243Z,18.10
2023-02-18T21:42:08.136Z,18.10
2023-02-18T21:44:42.414Z,18.00
2023-02-18T21:47:11.461Z,17.90
2023-02-18T21:49:39.412Z,17.80
2023-02-18T21:52:09.311Z,17.80
2023-02-18T21:54:39.146Z,17.70
2023-02-18T21:57:09.375Z,17.70
2023-02-18T21:59:37.416Z,17.70
2023-02-18T22:02:05.672Z,17.60
2023-02-18T22:04:34.519Z,17.60
2023-02-18T22:07:03.243Z,17.50
2023-02-18T22:09:31.105Z,17.60
2023-02-18T22:11:58.970Z,17.70
2023-02-18T22:14:28.268Z,17.80
2023-02-18T22:16:56.136Z,17.90
2023-02-18T22:19:24.171Z,17.80
2023-02-18T22:21:52.401Z,17.80
2023-02-18T22:24:20.449Z,17.80
2023-02-18T22:26:48.946Z,17.80
2023-02-18T22:29:18.649Z,17.70
2023-02-18T22:31:49.353Z,17.70
2023-02-18T22:34:17.421Z,17.60
2023-02-18T22:36:45.321Z,17.60
2023-02-18T22:39:13.350Z,17.60
2023-02-18T22:41:41.209Z,17.60
2023-02-18T22:44:10.116Z,17.60
2023-02-18T22:46:38.193Z,17.50
2023-02-18T22:49:07.548Z,17.50
2023-02-18T22:51:37.987Z,17.50
2023-02-18T22:54:06.597Z,17.50
2023-02-18T22:56:34.601Z,17.50
2023-02-18T22:59:02.483Z,17.50
2023-02-18T23:01:31.491Z,17.50
2023-02-18T23:04:00.031Z,17.50
2023-02-18T23:06:29.754Z,17.40
2023-02-18T23:08:57.648Z,17.50
2023-02-18T23:11:25.470Z,17.60
2023-02-18T23:14:08.748Z,17.70
2023-02-18T23:16:56.733Z,17.80
2023-02-18T23:19:25.243Z,17.70
2023-02-18T23:21:54.448Z,17.70
2023-02-18T23:24:22.508Z,17.70
2023-02-18T23:26:50.489Z,17.70
2023-02-18T23:29:18.534Z,17.60
2023-02-18T23:31:46.562Z,17.60
2023-02-18T23:34:15.538Z,17.60
2023-02-18T23:36:43.937Z,17.50
2023-02-18T23:39:13.634Z,17.50
2023-02-18T23:41:41.508Z,17.50
2023-02-18T23:44:11.157Z,17.50
2023-02-18T23:46:39.258Z,17.50
2023-02-18T23:49:07.215Z,17.50
2023-02-18T23:51:35.113Z,17.50
2023-02-18T23:54:03.491Z,17.50
2023-02-18T23:56:33.024Z,17.60
2023-02-18T23:59:02.251Z,17.70
